Time;durP1;ratioP1;P1;durP2;ratioP2;P2;SDS_P1;SDS_P2;PMS_P1;PMS_P2;Temp;Humidity;BMP_temperature;BMP_pressure;BME280_temperature;BME280_humidity;BME280_pressure;Samples;Min_cycle;Max_cycle;Signal;HPM_P1;HPM_P2
2022/04/08 00:01:40;;;;;;;1.27;0.25;;;7.80;99.90;;;;;;4934828;28;20046;-62
2022/04/08 00:04:08;;;;;;;0.43;0.20;;;7.80;99.90;;;;;;4935326;28;20955;-62
2022/04/08 00:06:35;;;;;;;0.20;0.20;;;7.80;99.90;;;;;;4933583;28;20185;-63
2022/04/08 00:09:02;;;;;;;1.15;0.47;;;7.80;99.90;;;;;;4934315;28;20356;-62
2022/04/08 00:11:30;;;;;;;3.17;0.30;;;7.80;99.90;;;;;;4931991;28;20057;-61
2022/04/08 00:13:57;;;;;;;5.03;0.60;;;7.80;99.90;;;;;;4934178;28;20046;-62
2022/04/08 00:16:24;;;;;;;1.95;0.50;;;7.80;99.90;;;;;;4930739;28;20104;-63
2022/04/08 00:18:52;;;;;;;3.45;0.60;;;7.80;99.90;;;;;;4934595;28;20042;-62
2022/04/08 00:21:20;;;;;;;1.88;0.68;;;7.90;99.90;;;;;;4933016;28;20220;-62
2022/04/08 00:23:47;;;;;;;2.03;0.65;;;8.00;99.90;;;;;;4930644;28;20038;-63
2022/04/08 00:26:14;;;;;;;2.08;0.60;;;8.00;99.90;;;;;;4934348;28;20153;-63
2022/04/08 00:28:41;;;;;;;1.10;0.50;;;8.10;99.90;;;;;;4930273;28;20034;-62
2022/04/08 00:31:08;;;;;;;0.60;0.60;;;8.20;99.90;;;;;;4927391;28;20394;-62
2022/04/08 00:33:35;;;;;;;;;;;8.20;99.90;;;;;;4932580;28;20057;-62
2022/04/08 00:36:02;;;;;;;3.78;0.90;;;8.20;99.90;;;;;;4932815;28;20800;-63
2022/04/08 00:38:29;;;;;;;1.90;0.70;;;8.20;99.90;;;;;;4931653;28;20378;-63
2022/04/08 00:40:56;;;;;;;1.83;0.52;;;8.30;99.90;;;;;;4928037;28;20046;-62
2022/04/08 00:43:32;;;;;;;2.15;0.70;;;8.30;99.90;;;;;;4934198;28;20145;-62
2022/04/08 00:46:00;;;;;;;1.08;0.80;;;8.40;99.90;;;;;;4929735;28;20157;-62
2022/04/08 00:48:27;;;;;;;2.53;0.80;;;8.40;99.90;;;;;;4938336;28;20057;-62
2022/04/08 00:50:54;;;;;;;1.52;0.50;;;8.40;99.90;;;;;;4952063;28;20231;-62
2022/04/08 00:53:23;;;;;;;6.25;0.75;;;8.50;99.90;;;;;;4949638;28;20368;-62
2022/04/08 00:55:50;;;;;;;2.17;0.70;;;8.50;99.90;;;;;;4953120;28;20046;-63
2022/04/08 00:58:17;;;;;;;3.08;0.52;;;8.50;99.90;;;;;;4965019;28;20079;-62
2022/04/08 01:00:44;;;;;;;1.02;0.70;;;8.50;99.90;;;;;;4952008;28;20042;-62
2022/04/08 01:03:13;;;;;;;4.60;0.70;;;8.50;99.90;;;;;;4951471;28;20057;-62
2022/04/08 01:05:41;;;;;;;3.45;0.75;;;8.50;99.90;;;;;;4954049;28;20053;-62
2022/04/08 01:08:10;;;;;;;1.48;0.73;;;8.50;99.90;;;;;;4951396;28;20830;-62
2022/04/08 01:10:41;;;;;;;1.83;0.60;;;8.40;99.90;;;;;;4951282;28;20200;-62
2022/04/08 01:13:08;;;;;;;1.73;1.33;;;8.40;99.90;;;;;;4954028;28;20605;-61
2022/04/08 01:15:35;;;;;;;3.03;0.65;;;8.40;99.90;;;;;;4943360;28;20854;-62
2022/04/08 01:18:05;;;;;;;1.70;0.65;;;8.40;99.90;;;;;;4930477;28;20380;-62
2022/04/08 01:20:33;;;;;;;2.13;0.70;;;8.40;99.90;;;;;;4931450;28;20560;-62
2022/04/08 01:23:01;;;;;;;5.07;1.17;;;8.40;99.90;;;;;;4933675;28;20315;-62
2022/04/08 01:25:28;;;;;;;1.20;0.60;;;8.40;99.90;;;;;;4932495;28;20596;-62
2022/04/08 01:27:55;;;;;;;1.50;0.80;;;8.30;99.90;;;;;;4932881;28;20309;-61
2022/04/08 01:30:22;;;;;;;1.10;0.80;;;8.30;99.90;;;;;;4933506;28;20042;-62
2022/04/08 01:32:49;;;;;;;;;;;8.30;99.90;;;;;;4931548;28;20525;-62
2022/04/08 01:35:16;;;;;;;0.82;0.82;;;8.30;99.90;;;;;;4933635;28;20710;-61
2022/04/08 01:37:43;;;;;;;2.67;0.77;;;8.30;99.90;;;;;;4930176;28;20382;-61
2022/04/08 01:40:11;;;;;;;1.13;0.88;;;8.30;99.90;;;;;;4930747;28;20081;-62
2022/04/08 01:42:38;;;;;;;1.05;0.60;;;8.30;99.90;;;;;;4933052;28;20050;-62
2022/04/08 01:45:05;;;;;;;3.83;0.80;;;8.20;99.90;;;;;;4932012;28;20410;-62
2022/04/08 01:47:32;;;;;;;0.77;0.50;;;8.20;99.90;;;;;;4931270;28;20038;-62
2022/04/08 01:49:59;;;;;;;1.83;0.95;;;8.10;99.90;;;;;;4931418;28;20204;-62
2022/04/08 01:52:26;;;;;;;3.42;1.17;;;8.10;99.90;;;;;;4932359;28;20047;-62
2022/04/08 01:54:53;;;;;;;;;;;8.00;99.90;;;;;;4932535;28;20294;-62
2022/04/08 01:57:23;;;;;;;6.05;1.02;;;8.00;99.90;;;;;;4931954;28;20004;-62
2022/04/08 01:59:53;;;;;;;1.35;0.63;;;7.90;99.90;;;;;;4931542;28;20800;-62
2022/04/08 02:02:20;;;;;;;1.17;0.60;;;7.80;99.90;;;;;;4931040;28;20046;-62
2022/04/08 02:04:48;;;;;;;0.40;0.40;;;7.70;99.90;;;;;;4931669;28;20038;-61
2022/04/08 02:07:15;;;;;;;2.42;0.52;;;7.70;99.90;;;;;;4929117;28;20053;-62
2022/04/08 02:09:41;;;;;;;2.63;0.88;;;7.60;99.90;;;;;;4931414;28;20047;-62
2022/04/08 02:12:09;;;;;;;3.90;0.82;;;7.50;99.90;;;;;;4929926;28;20068;-62
2022/04/08 02:14:36;;;;;;;2.47;0.70;;;7.50;99.90;;;;;;4930631;28;20042;-62
2022/04/08 02:17:04;;;;;;;4.18;0.88;;;7.40;99.90;;;;;;4931793;28;20046;-61
2022/04/08 02:19:31;;;;;;;1.50;0.70;;;7.40;99.90;;;;;;4931228;28;20052;-62
2022/04/08 02:21:59;;;;;;;1.48;0.80;;;7.40;99.90;;;;;;4932181;28;20598;-61
2022/04/08 02:24:27;;;;;;;1.30;0.70;;;7.30;99.90;;;;;;4931494;28;20066;-62
2022/04/08 02:26:54;;;;;;;2.78;0.60;;;7.30;99.90;;;;;;4929494;28;20203;-61
2022/04/08 02:29:22;;;;;;;3.10;0.93;;;7.20;99.90;;;;;;4931471;28;20038;-62
2022/04/08 02:31:50;;;;;;;1.13;0.75;;;7.20;99.90;;;;;;4927721;28;20066;-62
2022/04/08 02:34:18;;;;;;;2.17;0.80;;;7.20;99.90;;;;;;4933394;28;20387;-62
2022/04/08 02:36:45;;;;;;;3.40;0.70;;;7.20;99.90;;;;;;4930026;28;20148;-61
2022/04/08 02:39:12;;;;;;;1.75;0.57;;;7.10;99.90;;;;;;4929772;28;20050;-61
2022/04/08 02:41:39;;;;;;;3.13;0.98;;;7.10;99.90;;;;;;4930101;28;20567;-61
2022/04/08 02:44:06;;;;;;;;;;;7.10;99.90;;;;;;4929363;28;20145;-62
2022/04/08 02:46:33;;;;;;;2.63;0.90;;;7.10;99.90;;;;;;4928999;28;19922;-62
2022/04/08 02:49:00;;;;;;;3.67;1.60;;;7.10;99.90;;;;;;4925870;28;20046;-62
2022/04/08 02:51:30;;;;;;;7.05;1.08;;;7.00;99.90;;;;;;4932894;28;20837;-62
2022/04/08 02:53:57;;;;;;;6.78;1.00;;;7.00;99.90;;;;;;4926964;28;20219;-62
2022/04/08 02:56:24;;;;;;;2.72;0.93;;;6.90;99.90;;;;;;4932566;28;20189;-62
2022/04/08 02:58:52;;;;;;;4.68;1.20;;;6.90;99.90;;;;;;4930145;28;20046;-62
2022/04/08 03:01:19;;;;;;;2.97;1.15;;;6.90;99.90;;;;;;4928907;28;20719;-62
2022/04/08 03:03:46;;;;;;;2.05;0.90;;;6.80;99.90;;;;;;4930754;28;20217;-62
2022/04/08 03:06:13;;;;;;;;;;;6.80;99.90;;;;;;4930852;28;20832;-62
2022/04/08 03:08:40;;;;;;;1.67;1.10;;;6.70;99.90;;;;;;4933245;28;19921;-61
2022/04/08 03:11:08;;;;;;;2.13;1.13;;;6.70;99.90;;;;;;4945185;28;20065;-62
2022/04/08 03:13:35;;;;;;;6.72;1.30;;;6.60;99.90;;;;;;4931436;28;20312;-62
2022/04/08 03:16:02;;;;;;;7.57;1.50;;;6.60;99.90;;;;;;4931089;28;20571;-61
2022/04/08 03:18:29;;;;;;;5.15;1.40;;;6.60;99.90;;;;;;4929954;28;20049;-61
2022/04/08 03:20:56;;;;;;;4.28;1.63;;;6.60;99.90;;;;;;4930774;28;20042;-62
2022/04/08 03:23:24;;;;;;;5.45;1.40;;;6.60;99.90;;;;;;4912670;28;20046;-61
2022/04/08 03:25:51;;;;;;;8.40;1.52;;;6.60;99.90;;;;;;4931759;28;20054;-62
2022/04/08 03:28:18;;;;;;;2.80;1.40;;;6.50;99.90;;;;;;4929836;28;20039;-61
2022/04/08 03:30:46;;;;;;;7.55;1.55;;;6.50;99.90;;;;;;4930233;28;20039;-62
2022/04/08 03:33:13;;;;;;;5.40;1.45;;;6.40;99.90;;;;;;4928752;28;20038;-62
2022/04/08 03:35:40;;;;;;;4.82;1.33;;;6.40;99.90;;;;;;4927016;28;20102;-61
2022/04/08 03:38:07;;;;;;;3.78;1.55;;;6.40;99.90;;;;;;4930679;28;20072;-61
2022/04/08 03:40:35;;;;;;;4.15;1.63;;;6.40;99.90;;;;;;4927823;28;20203;-62
2022/04/08 03:43:03;;;;;;;5.72;1.40;;;6.30;99.90;;;;;;4927772;28;20594;-61
2022/04/08 03:45:30;;;;;;;5.00;1.60;;;6.30;99.90;;;;;;4932211;28;20284;-62
2022/04/08 03:47:57;;;;;;;4.97;1.55;;;6.30;99.90;;;;;;4928601;28;20038;-63
2022/04/08 03:50:24;;;;;;;;;;;6.30;99.90;;;;;;4929576;28;20212;-62
2022/04/08 03:52:51;;;;;;;4.63;1.13;;;6.30;99.90;;;;;;4928013;28;19922;-61
2022/04/08 03:55:18;;;;;;;5.13;1.25;;;6.30;99.90;;;;;;4932538;28;20046;-62
2022/04/08 03:57:47;;;;;;;4.15;1.05;;;6.30;99.90;;;;;;4927573;28;20046;-62
2022/04/08 04:00:14;;;;;;;4.15;1.65;;;6.30;99.90;;;;;;4928191;28;20059;-62
2022/04/08 04:02:41;;;;;;;2.85;1.17;;;6.30;99.90;;;;;;4929916;28;20042;-61
2022/04/08 04:05:10;;;;;;;4.32;1.80;;;6.30;99.90;;;;;;4930770;28;20920;-61
2022/04/08 04:07:38;;;;;;;4.82;1.70;;;6.20;99.90;;;;;;4935567;28;20783;-61
2022/04/08 04:10:06;;;;;;;3.30;1.30;;;6.20;99.90;;;;;;4931962;28;20381;-61
2022/04/08 04:12:33;;;;;;;3.00;1.55;;;6.30;99.90;;;;;;4934876;28;20108;-61
2022/04/08 04:15:00;;;;;;;2.67;1.50;;;6.20;99.90;;;;;;4933620;28;20114;-61
2022/04/08 04:17:28;;;;;;;5.47;1.30;;;6.30;99.90;;;;;;4929050;28;20204;-61
2022/04/08 04:19:55;;;;;;;3.40;1.10;;;6.20;99.90;;;;;;4933021;28;20239;-62
2022/04/08 04:22:22;;;;;;;1.85;1.15;;;6.30;99.90;;;;;;4932097;28;20752;-62
2022/04/08 04:24:49;;;;;;;2.15;1.10;;;6.30;99.90;;;;;;4935367;28;20094;-62
2022/04/08 04:27:15;;;;;;;2.00;1.05;;;6.30;99.90;;;;;;4932547;28;20752;-62
2022/04/08 04:29:43;;;;;;;1.75;0.98;;;6.30;99.90;;;;;;4935179;28;20596;-62
2022/04/08 04:32:09;;;;;;;4.60;0.90;;;6.40;99.90;;;;;;4933728;28;20243;-61
2022/04/08 04:34:38;;;;;;;1.13;0.85;;;6.40;99.90;;;;;;4930912;28;20156;-62
2022/04/08 04:37:08;;;;;;;4.28;0.93;;;6.50;99.90;;;;;;4934725;28;20042;-62
2022/04/08 04:39:36;;;;;;;1.40;1.02;;;6.50;99.90;;;;;;4926692;28;20340;-62
2022/04/08 04:42:04;;;;;;;5.63;1.70;;;6.50;99.90;;;;;;4928043;28;20341;-62
2022/04/08 04:44:31;;;;;;;2.28;0.60;;;6.60;99.90;;;;;;4934796;28;20761;-62
2022/04/08 04:46:58;;;;;;;0.45;0.45;;;6.60;99.90;;;;;;4933739;28;20042;-62
2022/04/08 04:49:25;;;;;;;5.95;1.13;;;6.70;99.90;;;;;;4932158;28;20266;-62
2022/04/08 04:51:54;;;;;;;2.42;0.70;;;6.80;99.90;;;;;;4931946;28;20085;-61
2022/04/08 04:54:21;;;;;;;0.80;0.70;;;6.80;99.90;;;;;;4934598;28;20047;-61
2022/04/08 04:56:48;;;;;;;2.08;0.90;;;6.80;99.90;;;;;;4930875;28;20640;-61
2022/04/08 04:59:15;;;;;;;3.50;0.80;;;6.80;99.90;;;;;;4931561;28;20556;-61
2022/04/08 05:01:42;;;;;;;0.88;0.70;;;6.80;99.90;;;;;;4932585;28;20042;-62
2022/04/08 05:04:09;;;;;;;1.35;0.57;;;6.90;99.90;;;;;;4930444;28;20039;-62
2022/04/08 05:06:36;;;;;;;5.47;0.70;;;6.90;99.90;;;;;;4933876;28;20125;-61
2022/04/08 05:09:05;;;;;;;3.28;0.73;;;6.90;99.90;;;;;;4931951;28;20815;-61
2022/04/08 05:11:33;;;;;;;0.88;0.88;;;6.80;99.90;;;;;;4932980;28;20995;-61
2022/04/08 05:14:00;;;;;;;0.90;0.80;;;6.90;99.90;;;;;;4934361;28;20153;-62
2022/04/08 05:16:30;;;;;;;1.75;1.13;;;6.90;99.90;;;;;;4933036;28;20035;-61
2022/04/08 05:18:58;;;;;;;3.28;1.20;;;6.90;99.90;;;;;;4929320;28;20034;-61
2022/04/08 05:21:25;;;;;;;4.45;1.38;;;6.90;99.90;;;;;;4931268;28;20033;-62
2022/04/08 05:23:52;;;;;;;2.20;0.98;;;6.80;99.90;;;;;;4916547;28;20104;-60
2022/04/08 05:26:19;;;;;;;3.30;1.63;;;6.80;99.90;;;;;;4929654;28;20043;-54
2022/04/08 05:28:46;;;;;;;1.75;0.73;;;6.80;99.90;;;;;;4934287;28;20203;-59
2022/04/08 05:31:14;;;;;;;1.67;0.90;;;6.90;99.90;;;;;;4932478;28;20038;-59
2022/04/08 05:33:41;;;;;;;0.80;0.80;;;6.90;99.90;;;;;;4931725;28;20556;-59
2022/04/08 05:36:08;;;;;;;4.47;0.80;;;6.90;99.90;;;;;;4929651;28;20050;-58
2022/04/08 05:38:35;;;;;;;2.00;0.80;;;6.90;99.90;;;;;;4910636;28;20050;-59
2022/04/08 05:41:02;;;;;;;1.13;1.00;;;6.90;99.90;;;;;;4919563;28;20836;-58
2022/04/08 05:43:30;;;;;;;2.83;1.10;;;6.90;99.90;;;;;;4932370;28;20191;-58
2022/04/08 05:45:57;;;;;;;1.20;0.75;;;6.90;99.90;;;;;;4915290;28;20213;-59
2022/04/08 05:48:24;;;;;;;1.77;0.80;;;6.90;99.90;;;;;;4932424;28;20892;-59
2022/04/08 05:50:51;;;;;;;4.28;1.00;;;6.90;99.90;;;;;;4929237;28;20426;-59
2022/04/08 05:53:18;;;;;;;3.00;1.10;;;6.90;99.90;;;;;;4929682;28;20131;-60
2022/04/08 05:56:02;;;;;;;2.90;0.65;;;6.90;99.90;;;;;;4932871;28;20972;-60
2022/04/08 05:58:30;;;;;;;1.15;0.80;;;6.90;99.90;;;;;;4933671;28;20206;-59
2022/04/08 06:00:57;;;;;;;3.10;1.45;;;6.90;99.90;;;;;;4931093;28;20475;-58
2022/04/08 06:03:24;;;;;;;1.98;1.10;;;7.00;99.90;;;;;;4933057;28;20042;-58
2022/04/08 06:05:51;;;;;;;1.55;1.33;;;7.00;99.90;;;;;;4931290;28;20157;-58
2022/04/08 06:08:18;;;;;;;1.45;1.08;;;7.00;99.90;;;;;;4928287;28;20053;-58
2022/04/08 06:10:45;;;;;;;0.85;0.85;;;7.00;99.90;;;;;;4931760;28;20552;-57
2022/04/08 06:13:12;;;;;;;4.75;1.40;;;7.10;99.90;;;;;;4944298;28;20419;-56
2022/04/08 06:15:39;;;;;;;2.00;1.15;;;7.10;99.90;;;;;;4940060;28;20038;-56
2022/04/08 06:18:08;;;;;;;;;;;7.10;99.90;;;;;;4933205;28;20053;-59
2022/04/08 06:20:35;;;;;;;2.83;1.10;;;7.20;99.90;;;;;;4931123;28;19922;-58
2022/04/08 06:23:02;;;;;;;1.17;0.90;;;7.20;99.90;;;;;;4931641;28;20908;-59
2022/04/08 06:25:29;;;;;;;2.75;0.90;;;7.30;99.90;;;;;;4926683;28;20042;-60
2022/04/08 06:27:57;;;;;;;1.40;0.80;;;7.40;99.90;;;;;;4932410;28;20045;-59
2022/04/08 06:30:25;;;;;;;2.10;0.80;;;7.50;99.90;;;;;;4926660;28;20254;-58
2022/04/08 06:32:52;;;;;;;1.73;1.00;;;7.60;99.90;;;;;;4930935;28;20049;-60
2022/04/08 06:35:19;;;;;;;6.60;1.15;;;7.60;99.90;;;;;;4931760;28;20263;-60
2022/04/08 06:37:47;;;;;;;1.17;0.75;;;7.70;99.90;;;;;;4928692;28;20366;-60
2022/04/08 06:40:14;;;;;;;6.60;1.27;;;7.70;99.90;;;;;;4929076;28;20802;-60
2022/04/08 06:42:41;;;;;;;1.10;1.00;;;7.70;99.90;;;;;;4932734;28;20046;-60
2022/04/08 06:45:09;;;;;;;1.80;1.02;;;7.80;99.90;;;;;;4929538;28;20211;-60
2022/04/08 06:47:45;;;;;;;1.77;1.00;;;7.80;99.90;;;;;;4930769;28;20478;-59
2022/04/08 06:50:13;;;;;;;1.85;1.08;;;7.80;99.90;;;;;;4930126;28;20165;-60
2022/04/08 06:52:40;;;;;;;0.90;0.70;;;7.80;99.90;;;;;;4932333;28;20757;-59
2022/04/08 06:55:08;;;;;;;2.20;1.10;;;7.80;99.90;;;;;;4929025;28;20818;-59
2022/04/08 06:57:36;;;;;;;0.70;0.60;;;7.80;99.90;;;;;;4924322;28;20153;-60
2022/04/08 07:00:08;;;;;;;0.60;0.60;;;7.90;99.90;;;;;;4930414;28;20140;-60
2022/04/08 07:02:36;;;;;;;1.75;0.60;;;7.90;99.90;;;;;;4929863;28;20046;-60
2022/04/08 07:05:05;;;;;;;0.98;0.70;;;7.90;99.90;;;;;;4930245;28;20054;-60
2022/04/08 07:07:33;;;;;;;1.25;0.90;;;7.90;99.90;;;;;;4920418;28;20052;-59
2022/04/08 07:10:01;;;;;;;2.10;0.70;;;7.90;99.90;;;;;;4927801;28;20042;-59
2022/04/08 07:12:29;;;;;;;2.60;0.73;;;8.00;99.90;;;;;;4923949;28;20848;-56
2022/04/08 07:14:56;;;;;;;1.25;0.75;;;7.90;99.90;;;;;;4928044;28;20540;-56
2022/04/08 07:17:31;;;;;;;0.95;0.80;;;8.00;99.90;;;;;;4928055;28;20654;-59
2022/04/08 07:20:14;;;;;;;1.33;0.75;;;8.00;99.90;;;;;;4929458;28;20816;-56
2022/04/08 07:22:42;;;;;;;0.40;0.40;;;8.00;99.90;;;;;;4929791;28;20774;-57
2022/04/08 07:25:10;;;;;;;1.25;0.65;;;8.00;99.90;;;;;;4930202;28;20041;-56
2022/04/08 07:27:52;;;;;;;0.70;0.70;;;8.00;99.90;;;;;;4928343;28;20191;-58
2022/04/08 07:30:21;;;;;;;2.80;0.95;;;8.00;99.90;;;;;;4929969;28;20556;-57
2022/04/08 07:32:52;;;;;;;1.27;0.68;;;8.00;99.90;;;;;;4926417;28;20039;-58
2022/04/08 07:35:23;;;;;;;0.60;0.60;;;8.00;99.90;;;;;;4910702;28;20573;-56
2022/04/08 07:37:50;;;;;;;0.60;0.60;;;8.10;99.90;;;;;;4919186;28;20051;-56
2022/04/08 07:40:19;;;;;;;1.52;0.70;;;8.10;99.90;;;;;;4922575;28;20204;-57
2022/04/08 07:42:46;;;;;;;2.50;0.68;;;8.20;99.90;;;;;;4935168;28;20066;-57
2022/04/08 07:45:13;;;;;;;0.77;0.65;;;8.20;99.90;;;;;;4931762;28;20200;-57
2022/04/08 07:47:41;;;;;;;0.95;0.90;;;8.30;99.90;;;;;;4932948;28;20042;-57
2022/04/08 07:50:11;;;;;;;3.30;0.93;;;8.30;99.90;;;;;;4931085;28;20149;-58
2022/04/08 07:52:40;;;;;;;1.27;0.50;;;8.40;99.90;;;;;;4934438;28;20055;-55
2022/04/08 07:55:07;;;;;;;0.52;0.52;;;8.50;99.90;;;;;;4936001;28;20350;-59
2022/04/08 07:57:49;;;;;;;2.95;0.50;;;8.50;99.90;;;;;;4930469;28;20045;-60
2022/04/08 08:00:21;;;;;;;1.10;0.93;;;8.60;99.90;;;;;;4931900;28;20072;-60
2022/04/08 08:02:50;;;;;;;0.85;0.55;;;8.70;99.90;;;;;;4931613;28;20042;-57
2022/04/08 08:05:20;;;;;;;1.40;0.63;;;8.80;99.90;;;;;;4931820;28;20128;-62
2022/04/08 08:07:53;;;;;;;0.52;0.40;;;8.80;99.90;;;;;;4934158;28;20038;-61
2022/04/08 08:10:20;;;;;;;0.65;0.35;;;8.80;99.90;;;;;;4931151;28;20232;-60
2022/04/08 08:12:48;;;;;;;1.02;0.30;;;8.80;99.90;;;;;;4933467;28;20149;-58
2022/04/08 08:15:18;;;;;;;0.88;0.43;;;8.90;99.90;;;;;;4917713;28;20900;-56
2022/04/08 08:17:46;;;;;;;0.30;0.30;;;8.90;99.90;;;;;;4935380;28;20560;-58
2022/04/08 08:20:15;;;;;;;0.73;0.50;;;9.00;99.90;;;;;;4932395;28;20054;-57
2022/04/08 08:22:42;;;;;;;0.30;0.30;;;9.10;99.90;;;;;;4934923;28;20567;-57
2022/04/08 08:25:11;;;;;;;1.30;0.57;;;9.20;99.90;;;;;;4936411;28;20548;-57
2022/04/08 08:27:45;;;;;;;0.73;0.32;;;9.30;99.90;;;;;;4932322;28;20141;-58
2022/04/08 08:30:14;;;;;;;0.98;0.80;;;9.40;99.90;;;;;;4930980;28;20835;-56
2022/04/08 08:32:45;;;;;;;1.25;0.40;;;9.50;99.90;;;;;;4930426;28;20054;-56
2022/04/08 08:35:14;;;;;;;0.40;0.38;;;9.60;99.90;;;;;;4933949;28;20805;-57
2022/04/08 08:37:41;;;;;;;0.22;0.22;;;9.70;99.90;;;;;;4931526;28;20752;-57
2022/04/08 08:40:11;;;;;;;0.50;0.30;;;9.80;99.90;;;;;;4933648;28;20073;-57
2022/04/08 08:42:40;;;;;;;0.30;0.20;;;9.80;99.90;;;;;;4931052;28;20553;-59
2022/04/08 08:45:09;;;;;;;0.98;0.45;;;9.80;99.90;;;;;;4929629;28;20152;-56
2022/04/08 08:47:36;;;;;;;0.20;0.20;;;9.80;99.90;;;;;;4933323;28;20041;-61
2022/04/08 08:50:07;;;;;;;0.20;0.20;;;9.80;99.90;;;;;;4930624;28;20280;-61
2022/04/08 08:52:34;;;;;;;0.10;0.10;;;9.80;99.90;;;;;;4931410;28;20039;-59
2022/04/08 08:55:06;;;;;;;0.10;0.10;;;9.80;99.90;;;;;;4933292;28;20204;-61
2022/04/08 08:57:34;;;;;;;0.52;0.40;;;9.80;99.90;;;;;;4933016;28;20327;-57
2022/04/08 09:00:06;;;;;;;0.20;0.20;;;9.90;99.90;;;;;;4935658;28;20081;-55
2022/04/08 09:02:34;;;;;;;0.15;0.15;;;10.00;99.90;;;;;;4929686;28;20155;-65
2022/04/08 09:05:12;;;;;;;0.15;0.10;;;10.10;99.90;;;;;;4934592;28;20050;-63
2022/04/08 09:07:39;;;;;;;0.20;0.20;;;10.10;99.90;;;;;;4933515;28;20544;-58
2022/04/08 09:10:07;;;;;;;0.40;0.38;;;10.20;99.90;;;;;;4932650;28;20136;-67
2022/04/08 09:12:35;;;;;;;0.40;0.40;;;10.20;99.90;;;;;;4932024;28;20149;-64
2022/04/08 09:15:03;;;;;;;1.75;0.47;;;10.30;99.90;;;;;;4933428;28;20583;-62
2022/04/08 09:17:31;;;;;;;0.47;0.47;;;10.30;99.90;;;;;;4933133;28;20350;-61
2022/04/08 09:19:59;;;;;;;0.57;0.30;;;10.40;99.90;;;;;;4928906;28;20402;-60
2022/04/08 09:22:29;;;;;;;1.30;0.50;;;10.40;99.90;;;;;;4932463;28;20151;-58
2022/04/08 09:25:10;;;;;;;0.55;0.55;;;10.40;99.90;;;;;;4934061;28;20042;-58
2022/04/08 09:27:39;;;;;;;0.25;0.25;;;10.50;99.90;;;;;;4932400;28;20110;-58
2022/04/08 09:30:08;;;;;;;0.30;0.30;;;10.50;99.90;;;;;;4932566;28;20834;-58
2022/04/08 09:32:36;;;;;;;1.45;0.50;;;10.50;99.90;;;;;;4929442;28;20580;-57
2022/04/08 09:35:04;;;;;;;0.40;0.40;;;10.60;99.90;;;;;;4931003;28;20038;-57
2022/04/08 09:37:31;;;;;;;0.30;0.22;;;10.70;99.90;;;;;;4928424;28;20741;-58
2022/04/08 09:40:00;;;;;;;0.80;0.40;;;10.70;99.90;;;;;;4931564;28;20732;-57
2022/04/08 09:42:47;;;;;;;0.60;0.50;;;10.70;99.90;;;;;;4908225;28;20067;-57
2022/04/08 09:45:14;;;;;;;0.47;0.47;;;10.80;99.90;;;;;;4914628;28;20203;-59
2022/04/08 09:47:41;;;;;;;0.43;0.40;;;10.90;99.90;;;;;;4917775;28;20809;-57
2022/04/08 09:50:10;;;;;;;0.43;0.20;;;10.90;99.90;;;;;;4931408;28;20053;-62
2022/04/08 09:52:39;;;;;;;1.27;0.65;;;11.00;99.90;;;;;;4913767;28;20038;-61
2022/04/08 09:55:07;;;;;;;0.45;0.45;;;11.00;99.90;;;;;;4931728;28;20049;-61
2022/04/08 09:57:39;;;;;;;1.95;0.60;;;11.00;99.90;;;;;;4946511;28;20609;-61
2022/04/08 10:00:07;;;;;;;0.65;0.60;;;11.00;99.90;;;;;;4947867;28;20050;-62
2022/04/08 10:02:56;;;;;;;0.50;0.47;;;11.00;99.90;;;;;;4949324;28;20045;-62
2022/04/08 10:05:23;;;;;;;1.65;0.52;;;11.10;99.90;;;;;;4947274;28;20041;-61
2022/04/08 10:07:53;;;;;;;0.50;0.40;;;11.10;99.90;;;;;;4944478;28;20100;-62
2022/04/08 10:10:33;;;;;;;0.45;0.28;;;11.30;99.90;;;;;;4946660;28;20096;-61
2022/04/08 10:13:14;;;;;;;0.90;0.60;;;11.30;99.90;;;;;;4944998;28;20120;-62
2022/04/08 10:16:09;;;;;;;0.73;0.35;;;11.50;99.90;;;;;;4940406;28;20055;-62
2022/04/08 10:18:39;;;;;;;0.47;0.47;;;11.60;99.90;;;;;;4931643;28;20765;-62
2022/04/08 10:21:07;;;;;;;0.55;0.32;;;11.60;99.90;;;;;;4931753;28;20144;-61
2022/04/08 10:23:40;;;;;;;0.35;0.35;;;11.80;99.90;;;;;;4927441;28;20049;-61
2022/04/08 10:26:22;;;;;;;0.50;0.30;;;11.90;99.90;;;;;;4931151;28;20686;-61
2022/04/08 10:28:51;;;;;;;0.40;0.40;;;12.00;99.90;;;;;;4931207;28;20211;-62
2022/04/08 10:31:19;;;;;;;0.30;0.30;;;12.00;99.90;;;;;;4932971;28;20831;-62
2022/04/08 10:33:57;;;;;;;0.43;0.22;;;12.10;99.90;;;;;;4929629;28;20680;-61
2022/04/08 10:36:37;;;;;;;0.55;0.20;;;12.10;99.90;;;;;;4931776;28;20066;-63
2022/04/08 10:39:19;;;;;;;0.28;0.22;;;12.20;99.90;;;;;;4932490;28;20286;-61
2022/04/08 10:41:51;;;;;;;0.10;0.10;;;12.30;99.90;;;;;;4925502;28;20042;-62
2022/04/08 10:44:35;;;;;;;0.20;0.20;;;12.40;99.90;;;;;;4932068;28;20122;-62
2022/04/08 10:47:17;;;;;;;0.25;0.22;;;12.40;99.90;;;;;;4927016;28;20046;-61
2022/04/08 10:50:04;;;;;;;0.75;0.25;;;12.50;99.90;;;;;;4930140;28;20050;-62
2022/04/08 10:52:40;;;;;;;0.40;0.40;;;12.50;99.90;;;;;;4928597;28;20363;-62
2022/04/08 10:55:12;;;;;;;0.20;0.20;;;12.50;99.90;;;;;;4928732;28;20042;-61
2022/04/08 10:57:44;;;;;;;0.20;0.20;;;12.60;99.90;;;;;;4932635;28;20168;-62
2022/04/08 11:00:13;;;;;;;0.28;0.15;;;12.70;99.90;;;;;;4928939;28;20209;-62
2022/04/08 11:02:43;;;;;;;0.20;0.20;;;12.70;99.90;;;;;;4933166;28;20046;-61
2022/04/08 11:05:15;;;;;;;0.65;0.38;;;12.70;99.90;;;;;;4926782;28;20108;-62
2022/04/08 11:07:47;;;;;;;1.85;0.28;;;12.80;99.90;;;;;;4930499;28;20675;-62
2022/04/08 11:10:17;;;;;;;0.60;0.20;;;12.80;99.90;;;;;;4930863;28;20606;-63
2022/04/08 11:12:48;;;;;;;0.60;0.40;;;12.80;99.90;;;;;;4932187;28;20308;-62
2022/04/08 11:15:24;;;;;;;0.68;0.30;;;12.90;99.90;;;;;;4912489;28;20765;-62
2022/04/08 11:17:52;;;;;;;0.17;0.17;;;12.80;99.90;;;;;;4930622;28;20117;-62
2022/04/08 11:20:21;;;;;;;0.30;0.30;;;12.80;99.90;;;;;;4931047;28;20347;-61
2022/04/08 11:22:52;;;;;;;0.52;0.38;;;12.80;99.90;;;;;;4928730;28;20422;-62
2022/04/08 11:25:26;;;;;;;0.35;0.32;;;12.90;99.90;;;;;;4931975;28;20038;-62
2022/04/08 11:28:07;;;;;;;0.50;0.50;;;13.10;99.90;;;;;;4926595;28;20598;-62
2022/04/08 11:30:42;;;;;;;0.30;0.20;;;13.40;99.90;;;;;;4928264;28;20054;-62
2022/04/08 11:33:17;;;;;;;1.08;0.50;;;13.60;99.90;;;;;;4929811;28;20415;-62
2022/04/08 11:35:45;;;;;;;0.82;0.45;;;13.70;99.90;;;;;;4928979;28;20147;-62
2022/04/08 11:38:17;;;;;;;0.45;0.30;;;13.80;99.90;;;;;;4929988;28;20181;-62
2022/04/08 11:40:44;;;;;;;4.22;0.25;;;13.90;99.90;;;;;;4929253;28;20700;-62
2022/04/08 11:43:18;;;;;;;0.20;0.20;;;14.00;99.90;;;;;;4930654;28;20046;-62
2022/04/08 11:45:46;;;;;;;0.52;0.25;;;14.00;99.90;;;;;;4911642;28;20050;-61
2022/04/08 11:48:16;;;;;;;0.28;0.28;;;14.00;99.90;;;;;;4931745;28;20207;-61
2022/04/08 11:50:52;;;;;;;0.80;0.30;;;14.00;99.90;;;;;;4927347;28;20567;-55
2022/04/08 11:53:21;;;;;;;0.40;0.17;;;14.10;99.90;;;;;;4924775;28;20556;-56
2022/04/08 11:55:54;;;;;;;1.20;0.10;;;14.10;99.90;;;;;;4930442;28;20053;-56
2022/04/08 11:58:21;;;;;;;0.38;0.10;;;14.10;99.90;;;;;;4923966;28;20038;-57
2022/04/08 12:00:51;;;;;;;0.32;0.20;;;14.10;99.90;;;;;;4929124;28;20046;-57
2022/04/08 12:03:23;;;;;;;0.63;0.20;;;14.00;99.90;;;;;;4929252;28;20300;-57
2022/04/08 12:05:51;;;;;;;0.20;0.20;;;14.00;99.90;;;;;;4930809;28;20038;-57
2022/04/08 12:08:37;;;;;;;0.40;0.30;;;14.00;99.90;;;;;;4929988;28;20575;-56
2022/04/08 12:11:09;;;;;;;0.17;0.17;;;14.00;99.90;;;;;;4929011;28;20057;-57
2022/04/08 12:13:40;;;;;;;1.55;0.47;;;14.00;99.90;;;;;;4928036;28;20192;-57
2022/04/08 12:16:12;;;;;;;0.40;0.20;;;14.00;99.90;;;;;;4927629;28;20097;-56
2022/04/08 12:18:54;;;;;;;1.30;0.32;;;14.10;99.90;;;;;;4929418;28;20045;-57
2022/04/08 12:21:43;;;;;;;0.63;0.10;;;14.10;99.90;;;;;;4927692;28;20100;-56
2022/04/08 12:24:11;;;;;;;0.63;0.40;;;14.20;99.90;;;;;;4930261;28;20351;-57
2022/04/08 12:26:39;;;;;;;2.03;0.20;;;14.20;98.40;;;;;;4932149;28;20145;-57
2022/04/08 12:29:07;;;;;;;0.30;0.30;;;14.10;97.80;;;;;;4930441;28;20058;-61
2022/04/08 12:31:47;;;;;;;1.23;0.22;;;14.10;97.00;;;;;;4931233;28;20133;-63
2022/04/08 12:34:17;;;;;;;1.38;0.52;;;14.00;96.00;;;;;;4932850;28;20121;-62
2022/04/08 12:36:45;;;;;;;1.30;0.40;;;14.00;96.90;;;;;;4923614;28;20647;-62
2022/04/08 12:39:14;;;;;;;0.43;0.43;;;14.00;96.90;;;;;;4928109;28;20062;-62
2022/04/08 12:41:43;;;;;;;0.30;0.30;;;14.00;96.80;;;;;;4928527;28;20054;-63
2022/04/08 12:44:10;;;;;;;0.43;0.35;;;14.00;95.90;;;;;;4930923;28;20050;-62
2022/04/08 12:46:38;;;;;;;3.25;0.43;;;14.00;96.40;;;;;;4930076;28;20901;-61
2022/04/08 12:49:06;;;;;;;0.30;0.30;;;14.00;94.60;;;;;;4929681;28;20049;-61
2022/04/08 12:51:34;;;;;;;4.75;0.50;;;14.00;95.00;;;;;;4931386;28;20049;-61
2022/04/08 12:54:01;;;;;;;0.95;0.40;;;13.90;95.50;;;;;;4931817;28;20564;-62
2022/04/08 12:56:28;;;;;;;0.30;0.30;;;13.90;96.10;;;;;;4943555;28;20611;-63
2022/04/08 12:58:55;;;;;;;0.55;0.20;;;13.90;96.30;;;;;;4930196;28;20544;-62
2022/04/08 13:01:22;;;;;;;0.82;0.45;;;13.90;96.20;;;;;;4939202;28;20051;-62
2022/04/08 13:03:50;;;;;;;0.30;0.30;;;13.90;95.70;;;;;;4924696;28;20062;-62
2022/04/08 13:06:17;;;;;;;0.47;0.30;;;13.90;96.50;;;;;;4923323;28;20125;-63